Date,TemperatureHighF,TemperatureAvgF,TemperatureLowF,DewpointHighF,DewpointAvgF,DewpointLowF,HumidityHigh,HumidityAvg,HumidityLow,PressureMaxIn,PressureMinIn,WindSpeedMaxMPH,WindSpeedAvgMPH,GustSpeedMaxMPH,PrecipitationSumIn
2014-1-1,23.0,4.9,-8.9,7.2,-7.9,-20.8,69,55,37,30.35,30.09,13,2,13,0.14
2014-1-2,8.4,2.4,-4.4,-0.5,-7.7,-14.9,66,61,57,30.35,29.99,16,4,16,0.02
2014-1-3,15.8,3.4,-13.9,3.6,-11.2,-27.0,67,50,35,30.28,29.88,13,4,13,0.35
2014-1-4,26.6,9.0,-13.9,-1.5,-8.8,-27.0,66,46,23,30.41,30.18,8,1,8,0.38
2014-1-5,41.7,28.1,-3.5,22.0,14.4,-13.4,78,59,29,30.29,30.09,7,1,7,0.72
2014-1-6,50.7,37.8,27.7,48.5,31.5,12.3,94,79,51,30.09,29.26,22,5,22,3.00
2014-1-7,28.0,8.6,2.7,12.3,-17.7,-23.0,51,28,22,30.03,29.39,26,9,26,3.00
2014-1-8,24.6,9.3,-8.1,-5.5,-9.9,-20.9,64,43,25,30.37,30.03,18,4,18,3.00
2014-1-9,30.9,13.9,-6.2,5.3,-4.8,-15.9,69,46,23,30.59,30.37,17,4,17,3.00
2014-1-10,34.7,19.7,-1.7,19.7,10.5,-11.4,79,67,51,30.58,30.26,6,1,6,3.01
2014-1-11,42.8,31.9,21.0,40.6,28.1,15.4,94,86,75,30.26,29.18,5,1,5,0.00
2014-1-12,47.5,40.4,33.4,28.5,24.0,19.8,63,52,39,29.90,29.46,23,6,23,0.00
2014-1-13,53.2,35.2,23.9,31.1,23.8,18.7,85,65,31,30.08,29.86,7,1,7,0.00
2014-1-14,38.5,35.2,32.2,35.7,31.2,27.2,92,85,75,29.87,29.62,7,1,7,0.00
2014-1-15,52.9,34.4,25.0,40.7,27.7,20.9,93,78,44,30.00,29.72,8,1,8,0.00
2014-1-16,35.8,31.0,25.3,31.7,26.8,21.2,88,84,76,29.95,29.86,8,1,8,0.00
2014-1-17,46.9,33.3,23.7,36.2,25.7,19.0,92,75,37,29.93,29.86,8,1,8,0.00
2014-1-18,32.7,27.6,21.7,26.7,22.9,17.7,87,82,65,29.91,29.67,8,2,8,0.00
2014-1-19,31.3,26.6,22.5,27.4,19.1,13.3,87,74,55,29.70,29.45,15,2,15,0.00
2014-1-20,40.5,26.7,6.8,24.9,14.9,-16.7,74,61,32,29.86,29.44,21,4,21,0.00
2014-1-21,14.2,6.9,-0.6,-12.4,-16.1,-20.8,45,33,24,30.02,29.86,13,3,13,0.00
2014-1-22,22.3,7.4,-1.7,-7.8,-16.3,-20.1,42,32,22,29.91,29.63,16,3,16,0.00
2014-1-23,24.4,5.2,-9.4,-6.6,-15.9,-22.6,57,38,22,30.04,29.83,13,4,13,0.00
2014-1-24,16.7,5.2,-6.2,-6.9,-16.4,-23.0,57,37,22,30.16,29.95,18,4,18,0.00
2014-1-25,31.1,18.4,1.6,18.8,4.7,-10.5,79,55,39,29.95,29.25,14,3,14,0.00
2014-1-26,20.1,13.2,2.5,12.9,-8.9,-20.2,74,38,21,29.83,29.26,24,6,24,0.00
2014-1-27,35.6,23.7,8.2,26.3,4.1,-14.4,77,46,22,29.88,29.47,24,5,24,0.00
2014-1-28,23.0,11.3,-3.8,-8.5,-14.0,-19.1,52,31,21,30.23,29.88,21,5,21,0.00
2014-1-29,26.8,18.7,1.0,-4.3,-11.6,-17.1,52,25,21,30.22,29.87,16,5,16,0.00
2014-1-30,35.4,20.9,4.1,1.6,-2.8,-14.8,60,36,23,30.37,30.06,12,3,12,0.00
2014-1-31,40.3,29.1,4.1,14.7,10.1,-6.6,70,47,24,30.21,29.96,14,3,14,0.00
2014-2-1,45.9,28.9,14.7,25.1,15.9,7.9,76,60,30,30.32,29.99,7,2,8,0.00
2014-2-2,44.1,36.0,30.6,30.9,27.4,23.9,80,71,57,29.99,29.84,10,1,10,0.00
2014-2-3,36.0,27.1,12.0,27.5,10.6,4.5,72,51,37,30.26,29.98,5,1,5,0.00
2014-2-4,37.8,20.2,3.2,14.7,4.5,-5.5,73,53,25,30.42,30.26,14,2,14,0.00
2014-2-5,24.1,20.0,10.8,14.9,11.8,2.3,78,70,54,30.32,29.73,15,3,15,0.00
2014-2-6,30.4,9.0,-7.2,7.1,-6.0,-17.3,73,53,23,30.22,29.92,12,2,12,0.00
2014-2-7,34.0,11.1,-11.2,6.0,-7.3,-23.4,59,44,24,30.17,30.08,17,3,17,0.00
2014-2-8,32.9,14.4,-5.4,3.7,-4.5,-15.9,60,44,23,30.21,30.10,15,3,15,0.00
2014-2-9,35.6,20.3,7.5,12.8,4.6,-2.7,75,52,24,30.16,29.91,8,1,8,0.00
2014-2-10,32.5,20.6,13.5,15.8,8.3,-3.3,75,61,26,29.99,29.87,14,2,14,0.00
2014-2-11,25.7,13.4,-4.4,-5.6,-10.8,-19.8,48,33,24,30.39,30.19,16,5,16,0.00
2014-2-12,39.2,6.3,-18.0,5.9,-14.4,-33.1,55,40,21,30.51,30.38,7,1,7,0.00
2014-2-13,30.0,17.3,-3.5,26.9,8.5,-15.8,88,68,53,30.39,29.14,27,5,27,0.00
2014-2-14,33.8,29.4,20.7,29.6,22.3,12.2,88,75,61,29.67,28.85,24,6,24,0.00
2014-2-15,24.8,18.4,15.8,16.1,11.2,8.4,75,73,66,29.78,29.67,8,1,8,0.00
2014-2-16,28.9,20.7,12.0,5.2,-3.1,-12.9,55,35,26,29.93,29.56,26,8,26,0.00
2014-2-17,26.6,10.4,7.3,-8.2,-14.2,-17.8,35,31,21,30.17,29.93,16,6,16,0.00
2014-2-18,23.9,17.2,-2.0,18.4,7.6,-14.4,79,66,38,30.31,29.94,8,2,8,0.00
2014-2-19,36.7,22.6,4.6,27.1,15.3,-3.5,82,73,57,30.05,29.75,7,1,7,0.00
2014-2-20,54.0,34.6,16.2,28.8,21.3,9.5,85,62,25,30.18,29.78,17,3,17,0.00
2014-2-21,36.1,33.7,30.0,31.8,29.7,26.8,88,85,83,30.14,29.69,10,2,10,0.00
2014-2-22,54.3,38.8,21.0,32.1,19.9,8.9,88,52,25,29.89,29.77,21,4,21,0.00
2014-2-23,39.2,33.5,27.0,20.5,16.8,10.4,71,52,31,29.94,29.89,11,2,11,0.00
2014-2-24,36.7,27.0,17.2,13.9,2.7,-5.5,50,35,23,29.87,29.69,24,8,24,0.00
2014-2-25,25.7,18.6,4.5,0.9,-4.7,-8.6,62,36,26,29.91,29.82,20,6,20,0.00
2014-2-26,32.0,16.2,-3.6,7.2,-4.7,-15.2,62,40,25,29.88,29.71,21,4,21,0.00
2014-2-27,29.7,12.0,-3.6,5.3,-7.2,-16.8,61,43,21,29.82,29.56,16,3,16,0.00
2014-2-28,24.8,12.2,-5.1,-7.8,-16.2,-28.4,47,26,21,30.32,29.81,20,6,20,0.00
2014-3-1,24.4,19.7,16.5,8.2,4.9,2.8,56,52,39,30.13,30.03,2,0,2,0.00
2014-3-2,38.1,24.7,13.1,16.0,5.9,-2.3,63,45,27,30.03,29.96,14,3,14,0.00
2014-3-3,23.7,12.3,-4.7,-3.0,-12.7,-25.1,50,32,21,30.24,30.00,17,4,17,0.00
2014-3-4,33.6,12.7,-13.2,-0.3,-11.1,-26.1,54,35,21,30.32,30.19,12,2,12,0.00
2014-3-5,27.0,15.5,-1.7,10.0,2.6,-13.0,69,56,42,30.48,30.23,10,2,10,0.00
2014-3-6,42.4,10.5,-16.8,7.3,-11.3,-31.1,59,39,21,30.61,30.48,6,1,9,0.00
2014-3-7,38.3,8.8,-9.9,11.5,-4.5,-22.5,68,54,24,30.48,29.95,3,1,3,0.00
2014-3-8,55.8,28.7,6.8,24.7,12.3,-2.4,71,53,23,29.95,29.68,14,3,17,0.00
2014-3-9,39.4,25.7,10.8,15.6,3.9,-7.7,76,44,21,29.91,29.84,17,4,17,0.00
2014-3-10,40.8,29.3,19.6,25.8,16.1,4.2,78,58,44,29.85,29.62,11,2,11,0.00
2014-3-11,61.0,36.5,24.6,37.6,26.5,19.6,86,69,39,29.73,29.48,17,2,17,0.00
2014-3-12,36.9,31.9,26.6,31.6,27.3,21.3,85,83,79,29.73,29.11,14,3,16,0.00
2014-3-13,29.1,17.8,10.0,24.9,5.7,-12.0,89,60,35,29.85,29.09,19,6,19,0.00
2014-3-14,35.4,20.7,0.9,13.0,-1.0,-14.2,66,40,22,30.08,29.85,14,3,14,0.00
2014-3-15,57.7,37.8,22.6,32.9,23.6,13.4,75,57,32,29.85,29.64,19,4,19,0.00
2014-3-16,35.1,23.3,10.0,23.0,-2.6,-19.4,75,34,21,30.19,29.79,24,7,24,0.00
2014-3-17,33.3,15.8,0.0,-0.6,-10.8,-21.5,51,30,21,30.17,30.01,14,3,14,0.00
2014-3-18,43.3,20.3,-3.6,7.3,-2.0,-14.9,62,40,21,30.33,30.14,10,2,10,0.00
2014-3-19,48.0,27.6,7.9,26.1,13.8,-1.0,85,58,25,30.38,30.02,13,3,13,0.00
2014-3-20,49.5,36.1,29.1,36.0,27.5,21.7,86,72,54,30.03,29.56,17,4,17,0.00
2014-3-21,43.2,33.7,23.2,22.9,17.5,11.1,66,52,32,29.97,29.65,24,6,24,0.00
2014-3-22,39.9,28.8,15.4,29.9,16.3,6.2,73,60,39,30.00,29.65,21,2,21,0.00
2014-3-23,40.5,25.3,11.1,23.8,3.8,-15.4,78,44,21,30.08,29.88,22,5,22,0.00
2014-3-24,30.9,14.7,-4.5,1.0,-9.2,-17.1,60,36,21,30.11,30.01,20,4,20,0.00
2014-3-25,39.6,18.6,-6.2,8.5,-2.9,-17.3,61,41,21,30.11,28.82,12,2,12,0.00
2014-3-26,33.8,25.1,18.1,10.8,3.8,-11.7,65,41,24,29.97,28.87,25,7,29,0.00
2014-3-27,41.7,26.8,14.2,16.4,-1.3,-13.8,58,30,21,30.25,28.82,129,5,129,0.00
2014-3-28,45.5,35.2,29.5,35.4,26.3,13.1,86,71,44,30.17,29.17,129,1,129,0.00
2014-3-29,61.5,41.8,30.7,43.9,33.1,27.6,92,73,40,30.26,28.82,132,2,132,0.00
2014-3-30,37.2,35.2,33.6,31.5,30.0,27.7,84,81,76,30.08,28.97,125,7,125,0.00
2014-3-31,50.4,37.6,32.5,30.8,26.7,22.3,83,66,43,30.03,28.99,122,5,122,0.00
2014-4-1,32.2,29.7,27.5,25.0,24.7,20.5,82,81,67,30.04,29.28,2,2,2,0.00
2014-4-2,29.8,29.8,29.8,25.0,25.0,25.0,82,82,82,30.03,29.29,2,2,2,0.00
2014-4-3,29.8,29.8,29.8,25.0,25.0,25.0,82,82,82,30.03,29.29,2,2,2,0.00
2014-4-4,29.8,29.8,29.8,25.0,25.0,25.0,82,82,82,30.03,29.29,2,2,2,0.00
2014-4-5,29.8,29.8,29.8,25.0,25.0,25.0,82,82,82,30.03,29.29,2,2,2,0.00
2014-4-6,29.8,29.8,29.8,25.0,25.0,25.0,82,82,82,30.03,29.29,2,2,2,0.00
2014-4-7,48.4,31.9,29.8,33.6,26.1,15.2,89,79,33,30.31,29.29,8,2,8,0.04
2014-4-8,57.0,43.6,35.8,47.9,40.5,32.9,97,89,69,29.98,29.33,8,3,8,0.00
2014-4-9,50.7,40.4,29.1,36.6,15.5,2.7,91,39,22,29.93,29.46,22,6,22,0.01
2014-4-10,63.9,44.5,22.3,30.4,20.7,13.2,75,44,18,30.11,29.93,14,3,14,0.02
2014-4-11,72.9,54.2,38.3,41.2,33.5,20.1,90,51,17,30.03,29.88,16,4,16,0.02
2014-4-12,68.5,48.4,30.2,45.4,32.6,24.9,99,63,22,30.22,29.99,18,3,18,0.02
2014-4-13,43.5,38.7,36.1,38.9,35.5,31.4,97,88,62,30.33,30.03,10,2,10,0.08
2014-4-14,79.5,57.3,33.4,56.7,45.6,32.4,99,69,36,30.04,29.78,19,4,19,0.18
2014-4-15,61.0,60.9,60.8,51.5,51.2,51.0,71,70,70,29.85,29.85,8,6,10,0.00
2014-4-16,34.0,34.0,34.0,13.9,13.9,13.9,43,43,43,30.24,30.24,12,12,14,1.15
2014-4-17,51.6,36.8,24.8,20.3,15.0,9.1,80,43,23,30.81,30.24,13,8,14,0.18
2014-4-18,52.5,36.4,19.6,30.4,24.7,16.8,89,65,37,30.68,30.25,14,2,14,0.66
2014-4-19,59.2,41.4,25.7,36.5,28.5,22.6,95,64,35,30.44,30.16,23,5,23,3.50
2014-4-20,64.6,42.8,22.6,32.8,21.4,13.8,88,51,17,30.52,30.33,11,3,11,1.59
2014-4-21,78.1,51.1,27.9,36.4,28.7,20.4,88,52,14,30.33,29.82,11,3,11,0.04
2014-4-22,77.7,59.5,41.7,51.3,39.3,25.8,93,54,18,29.83,29.47,14,2,14,0.01
2014-4-23,55.8,49.0,40.3,51.7,40.7,31.9,99,75,54,29.61,29.44,16,4,16,0.01
2014-4-24,57.6,47.1,36.7,32.1,27.9,23.8,65,48,30,29.94,29.60,23,7,23,0.00
2014-4-25,68.5,48.8,26.4,36.3,26.6,18.5,90,50,15,30.01,29.83,13,3,13,0.00
2014-4-26,47.1,41.9,37.6,39.6,37.4,34.4,97,84,68,29.89,29.81,11,2,11,0.00
2014-4-27,58.1,42.5,32.2,45.7,38.3,30.7,99,86,54,30.06,29.88,14,2,14,0.00
2014-4-28,61.5,46.1,29.8,42.1,36.7,28.9,99,73,45,30.27,30.01,15,4,15,0.01
2014-4-29,56.8,45.1,39.0,41.5,34.4,31.8,90,68,43,30.56,30.26,17,6,17,0.38
2014-4-30,45.0,39.9,37.6,38.7,35.8,33.9,96,86,68,30.57,30.24,11,3,11,0.92
2014-5-1,67.5,47.2,37.2,52.3,43.2,35.4,98,88,57,30.24,29.68,10,3,12,1.74
2014-5-2,65.7,52.3,38.8,50.0,41.7,38.0,99,72,37,29.82,29.67,17,4,17,3.01
2014-5-3,69.3,51.7,34.9,49.1,42.4,33.3,99,74,39,29.86,29.74,12,2,12,0.19
2014-5-4,61.3,49.5,43.0,49.6,42.9,39.1,98,80,49,29.75,29.50,16,4,16,4.28
2014-5-5,62.1,51.6,39.0,46.3,41.1,37.1,97,69,47,29.87,29.62,23,5,23,0.30
2014-5-6,64.4,54.5,34.3,37.9,31.4,23.2,85,45,22,30.06,29.85,21,6,21,1.22
2014-5-7,70.2,50.3,28.4,40.0,30.8,23.7,97,56,19,30.20,30.06,17,4,17,5.39
2014-5-8,77.4,54.5,28.8,41.4,32.8,22.3,96,53,15,30.23,30.07,12,2,12,2.50
2014-5-9,56.8,50.3,45.1,45.6,35.2,25.1,97,60,34,30.29,30.10,11,3,11,3.08
2014-5-10,78.1,59.0,46.4,62.6,54.1,45.6,99,86,57,30.10,29.72,10,2,10,7.35
2014-5-11,78.1,63.5,44.6,53.2,39.4,28.0,96,46,18,30.04,29.77,23,5,23,0.12
2014-5-12,85.8,64.6,38.5,51.0,42.4,37.1,99,53,21,30.19,30.01,22,4,22,0.00
2014-5-13,60.3,53.6,50.0,45.1,41.8,39.2,73,64,50,30.34,30.19,14,3,14,0.00
2014-5-14,75.0,59.9,46.2,48.8,43.6,37.1,92,58,35,30.35,30.26,13,4,13,0.00
2014-5-15,81.0,62.5,44.6,62.8,54.8,43.0,96,77,51,30.32,30.19,10,2,10,0.00
2014-5-16,78.3,64.2,59.5,62.8,58.6,57.3,95,83,56,30.23,30.01,18,4,18,13.30
2014-5-17,77.4,63.0,44.2,61.6,52.7,37.0,96,74,27,30.08,29.88,16,4,16,6.37
2014-5-18,71.6,55.4,38.1,56.6,42.5,37.7,99,66,32,30.14,30.04,13,2,13,0.01
2014-5-19,66.0,51.2,34.3,46.9,40.7,32.8,99,71,38,30.10,30.04,17,3,17,0.00
2014-5-20,75.4,62.2,37.2,50.2,45.5,36.5,99,58,34,30.05,29.97,17,4,17,0.04
2014-5-21,79.7,60.3,39.7,54.4,48.0,39.5,99,68,35,30.03,29.93,14,2,14,1.32
2014-5-22,70.5,57.0,43.9,54.3,50.2,43.4,98,80,53,29.99,29.90,14,2,14,5.76
2014-5-23,55.6,53.0,51.3,53.0,51.4,50.1,97,94,91,30.03,29.91,7,1,7,13.70
2014-5-24,72.9,57.4,50.0,60.3,52.7,49.0,99,86,49,30.08,30.00,14,1,14,3.66
2014-5-25,78.8,61.0,51.3,58.0,53.4,50.4,98,79,43,30.11,29.99,8,2,8,0.00
2014-5-26,82.4,64.2,49.5,59.6,54.4,49.2,99,74,41,30.00,29.80,20,3,20,0.00
2014-5-27,64.6,55.6,45.5,60.1,52.3,43.9,96,89,77,30.00,29.83,12,2,12,0.00
2014-5-28,59.0,48.6,37.4,49.0,45.0,36.9,98,88,68,30.25,30.00,11,3,11,0.00
2014-5-29,77.0,53.8,33.6,51.3,41.8,32.5,99,70,27,30.28,30.14,8,2,8,0.00
2014-5-30,77.2,56.7,39.0,54.2,46.8,38.4,99,74,31,30.16,30.01,14,2,14,0.00
2014-5-31,73.9,57.5,41.5,58.6,49.2,40.8,99,77,37,30.34,30.09,11,2,11,0.00
2014-6-1,82.8,60.9,36.5,57.5,44.3,35.7,99,63,22,30.38,30.23,8,2,8,0.00
2014-6-2,90.1,66.5,41.4,59.4,50.7,41.1,99,64,24,30.25,30.01,11,2,11,0.00
2014-6-3,86.0,67.6,49.5,61.1,53.4,41.4,99,65,26,30.05,29.96,16,3,16,0.00
2014-6-4,60.3,56.9,53.1,54.7,53.0,44.4,97,87,59,29.99,29.83,8,2,8,0.00
2014-6-5,69.1,57.6,50.7,59.2,54.6,49.6,97,90,68,29.84,29.71,11,1,11,0.00
2014-6-6,78.1,62.4,50.7,61.6,53.2,49.4,99,75,44,29.91,29.71,12,3,12,0.00
2014-6-7,88.2,67.5,46.6,60.4,54.5,46.3,99,69,35,29.99,29.90,15,3,15,0.00
2014-6-8,89.6,70.5,48.6,63.3,56.7,48.1,99,68,32,30.00,29.89,9,2,9,0.00
2014-6-9,91.4,70.8,54.1,66.3,60.6,53.3,98,74,32,30.00,29.93,10,1,10,0.00
2014-6-10,82.2,68.4,58.3,64.1,59.5,52.7,95,75,51,30.16,29.98,15,3,15,0.00
2014-6-11,79.2,68.0,55.0,56.6,52.8,47.3,95,61,37,30.23,30.15,11,3,11,0.28
2014-6-12,67.3,58.1,53.2,57.2,54.0,52.4,97,87,63,30.23,30.13,11,2,11,0.18
2014-6-13,59.4,56.9,55.6,57.5,55.6,54.5,97,95,93,30.14,29.85,11,3,11,4.09
2014-6-14,78.6,63.6,55.8,62.0,56.8,50.4,98,81,47,29.94,29.83,13,2,13,1.30
2014-6-15,79.2,63.5,45.7,58.4,52.1,44.9,99,70,41,30.10,29.93,16,4,16,0.09
2014-6-16,85.8,65.5,42.3,60.1,50.0,40.1,99,65,25,30.18,30.04,10,2,10,0.00
2014-6-17,93.0,73.7,54.0,68.8,61.2,52.3,96,69,40,30.09,29.86,9,2,9,0.00
2014-6-18,81.7,73.0,62.4,67.3,62.5,57.0,95,71,48,29.96,29.70,20,4,20,0.00
2014-6-19,81.9,70.4,49.6,63.7,50.0,40.0,98,55,23,30.02,29.94,16,4,16,0.00
2014-6-20,73.9,57.9,42.4,54.2,43.8,39.3,99,65,31,30.01,29.92,17,3,17,0.00
2014-6-21,77.4,58.4,38.5,51.8,45.5,38.0,99,68,34,30.00,29.89,14,3,14,0.00
2014-6-22,81.0,61.4,38.8,58.1,49.2,38.4,99,69,35,30.08,29.96,10,2,10,0.26
2014-6-23,86.4,67.1,44.2,60.8,53.6,43.7,99,67,36,30.18,30.08,13,2,13,1.75
2014-6-24,86.9,69.2,52.2,66.3,58.8,51.1,97,72,48,30.18,30.00,9,2,9,3.02
2014-6-25,87.3,71.7,62.2,70.2,64.1,56.8,95,78,55,30.00,29.90,9,2,9,1.49
2014-6-26,73.6,66.6,54.1,67.6,62.3,53.3,97,87,70,30.07,29.84,11,2,11,1.19
2014-6-27,88.0,67.7,48.0,62.9,54.7,47.8,99,69,34,30.25,30.06,11,2,11,5.49
2014-6-28,91.4,69.9,48.2,66.4,56.4,47.9,99,69,26,30.31,30.25,7,1,7,0.07
2014-6-29,91.8,71.7,49.6,65.5,57.9,49.4,99,67,32,30.29,30.11,9,2,9,0.00
2014-6-30,94.3,75.6,55.8,69.8,63.6,55.2,98,70,42,30.12,29.93,11,2,11,0.00
2014-7-1,93.6,79.0,62.4,72.9,68.3,61.2,97,73,48,29.95,29.78,10,2,10,0.00
2014-7-2,97.0,78.9,68.5,76.5,70.2,66.8,96,78,48,29.98,29.81,22,2,22,0.00
2014-7-3,92.8,78.9,63.3,75.7,70.3,62.5,98,77,53,30.04,29.93,15,2,15,0.00
2014-7-4,71.8,67.6,62.2,68.1,65.5,60.2,97,93,86,30.06,29.88,8,1,8,0.00
2014-7-5,81.3,66.6,57.6,60.2,52.6,43.0,93,65,34,30.00,29.79,23,5,23,0.00
2014-7-6,88.2,72.0,57.0,60.1,55.2,49.3,91,59,33,29.99,29.86,14,3,14,0.00
2014-7-7,89.4,72.8,54.5,72.2,63.1,53.4,97,74,45,29.88,29.71,13,2,13,0.00
2014-7-8,93.2,84.3,72.9,72.6,70.3,67.7,89,64,49,29.82,29.68,9,3,9,0.00
2014-7-9,90.1,77.9,64.2,68.6,63.4,60.0,96,65,41,29.99,29.69,21,4,21,0.00
2014-7-10,81.9,67.5,53.4,66.3,57.9,51.6,98,75,36,30.21,29.96,12,2,12,0.00
2014-7-11,84.9,67.4,49.1,61.3,55.1,48.8,99,70,38,30.28,30.20,11,2,11,0.00
2014-7-12,90.0,71.4,50.7,66.9,59.4,50.5,99,71,41,30.26,30.13,9,2,9,0.00
2014-7-13,89.4,72.8,58.5,70.5,65.0,57.6,97,79,51,30.13,29.89,12,2,12,0.00
2014-7-14,92.5,78.4,67.1,71.8,67.4,63.4,95,72,42,29.94,29.87,9,2,9,0.00
2014-7-15,90.0,74.8,68.9,74.0,69.7,67.1,95,85,55,29.91,29.79,10,1,10,0.00
2014-7-16,78.1,70.7,62.2,70.9,67.2,60.6,97,89,73,29.88,29.79,4,1,4,0.00
2014-7-17,84.4,69.3,55.0,66.0,58.4,53.4,98,72,38,30.11,29.88,12,2,12,0.00
2014-7-18,85.5,69.5,50.5,61.8,56.1,50.3,99,67,38,30.28,30.11,11,2,11,0.00
2014-7-19,83.1,67.3,50.7,63.6,58.2,50.5,99,76,45,30.32,30.26,8,1,8,0.00
2014-7-20,83.7,68.7,54.5,65.0,58.5,53.7,99,74,40,30.27,30.20,10,2,10,0.00
2014-7-22,93.2,82.6,66.6,71.1,68.1,64.8,95,65,44,30.14,29.99,8,2,8,0.00
2014-7-23,95.7,77.3,62.1,74.0,68.0,61.2,97,76,47,29.99,29.75,19,2,19,0.01
2014-7-24,84.7,71.2,55.0,67.6,62.4,53.7,96,76,45,29.95,29.79,9,2,9,1.71
2014-7-25,77.9,56.4,47.3,61.0,52.7,47.0,99,89,53,30.01,29.95,8,1,8,0.27
2014-7-26,85.6,74.4,56.8,65.5,60.0,55.6,99,64,39,30.00,29.88,14,2,14,0.86
2014-7-27,75.2,65.8,53.8,71.8,62.9,52.8,99,91,75,29.93,29.70,11,1,11,4.41
2014-7-28,86.0,68.1,61.3,71.7,65.4,60.1,98,92,61,29.72,29.48,16,2,16,0.96
2014-7-29,78.8,66.8,54.7,63.7,56.2,53.0,97,72,44,29.99,29.55,18,4,18,0.57
2014-7-30,82.8,65.9,54.0,62.7,56.4,47.0,98,76,32,30.08,29.99,8,1,8,0.51
2014-7-31,84.6,66.1,50.2,66.3,58.1,49.9,99,79,45,30.19,30.07,11,2,11,0.00
2014-8-1,88.2,71.0,52.9,67.9,61.3,52.3,99,75,45,30.26,30.19,10,2,10,0.17
2014-8-2,81.0,71.1,55.4,68.1,61.8,54.3,96,74,53,30.26,30.17,9,2,9,0.67
2014-8-3,86.2,67.3,51.4,67.4,60.3,51.2,99,81,48,30.18,30.08,9,1,9,0.00
2014-8-4,88.5,71.5,57.7,70.1,63.6,57.2,98,79,44,30.10,30.02,8,2,8,0.00
2014-8-5,89.8,71.8,57.2,68.2,62.9,56.9,99,77,45,30.07,29.93,11,2,11,0.00
2014-8-6,85.1,69.6,55.2,68.2,61.6,54.1,97,79,41,29.93,29.82,13,2,13,0.00
2014-8-7,78.1,60.7,48.9,63.2,55.1,48.5,99,84,53,29.97,29.88,12,2,12,0.00
2014-8-8,84.6,65.6,48.0,64.5,56.2,47.8,99,76,42,30.07,29.97,10,2,10,0.00
2014-8-9,89.1,68.0,51.6,66.7,58.7,51.3,99,76,37,30.14,30.05,6,1,8,0.00
2014-8-10,89.1,68.3,49.8,68.3,59.4,49.6,99,77,36,30.18,30.12,7,1,7,0.00
2014-8-11,90.9,71.2,52.7,67.8,60.6,52.2,99,74,33,30.19,30.11,7,1,7,0.00
2014-8-12,83.7,68.7,58.3,67.1,62.1,57.7,98,82,50,30.18,30.09,11,3,11,0.00
2014-8-13,66.9,63.5,60.4,63.0,60.8,58.6,97,91,85,30.10,29.67,16,4,16,0.00
2014-8-14,76.6,63.8,48.6,59.8,54.8,48.0,99,76,43,29.91,29.67,17,3,17,0.00
2014-8-15,75.2,59.4,45.9,58.9,52.7,45.1,99,81,47,29.92,29.87,10,2,10,0.00
2014-8-16,77.4,64.2,54.1,61.6,55.7,52.2,96,76,48,29.97,29.89,11,2,11,0.00
2014-8-17,74.8,63.5,54.9,61.4,56.9,52.9,98,81,57,29.93,29.81,15,3,15,0.00
2014-8-18,77.4,63.1,47.5,57.0,52.6,46.9,99,72,42,29.92,29.81,15,3,15,0.43
2014-8-19,83.7,61.5,42.3,61.9,51.6,42.0,99,75,37,30.00,29.89,8,1,8,0.00
2014-8-20,85.8,65.5,46.8,65.0,55.9,46.3,99,76,40,30.12,30.00,9,2,9,0.00
2014-8-21,76.3,61.5,49.6,63.2,57.6,49.4,99,88,62,30.15,30.09,6,1,6,0.00
2014-8-22,72.9,64.3,58.6,62.1,58.9,56.6,96,83,65,30.18,30.12,11,2,11,0.00
2014-8-23,78.6,64.3,52.2,64.0,57.2,51.3,99,80,50,30.18,30.14,11,2,11,0.00
2014-8-24,88.2,66.9,50.4,67.3,58.1,50.1,99,78,39,30.19,30.14,9,1,9,0.01
2014-8-25,93.0,70.1,52.2,69.8,60.2,51.6,99,76,34,30.21,30.14,8,1,8,0.00
2014-8-26,90.9,71.1,53.8,70.4,61.3,53.0,99,76,41,30.19,30.04,8,1,8,0.40
2014-8-27,90.5,73.8,58.3,70.7,64.9,57.7,99,77,47,30.04,29.87,12,2,12,0.28
2014-8-28,81.0,66.7,50.9,69.2,57.1,49.5,99,75,39,30.03,29.84,16,2,16,0.43
2014-8-29,82.8,62.3,44.8,64.1,52.6,44.0,99,76,39,30.30,29.43,6,2,9,2.01
2014-8-30,82.0,63.4,46.0,64.4,55.5,45.2,99,79,47,30.31,29.54,13,2,13,0.80
2014-8-31,86.9,70.5,58.1,71.7,65.1,56.8,98,84,57,30.12,29.96,13,2,13,0.64
2014-9-1,90.0,74.4,61.9,75.0,67.1,60.9,98,81,48,30.02,29.95,8,2,8,2.06
2014-9-2,92.3,75.3,59.5,74.1,67.5,59.3,99,79,51,29.99,29.74,8,2,8,0.00
2014-9-3,83.7,70.9,54.3,70.3,60.6,53.5,97,73,42,30.11,29.72,20,4,20,0.00
2014-9-4,87.1,66.6,48.9,65.7,57.8,48.7,99,78,39,30.22,30.11,7,1,8,0.00
2014-9-5,91.8,73.1,55.9,70.7,64.4,55.7,99,78,43,30.18,29.98,9,2,9,0.00
2014-9-6,88.9,73.2,61.9,74.7,66.9,59.2,97,82,54,29.98,29.75,13,2,13,0.00
2014-9-7,81.3,64.7,49.3,63.6,54.0,48.1,98,73,35,30.26,29.94,11,2,13,0.00
2014-9-8,79.3,59.8,44.8,64.8,50.5,44.0,99,76,43,30.43,30.26,11,2,11,0.00
2014-9-9,72.7,56.6,41.9,62.8,48.1,41.1,99,77,38,30.44,30.26,9,2,9,0.00
2014-9-10,77.4,59.8,48.4,59.7,54.6,48.1,99,85,51,30.26,30.06,8,1,8,0.00
2014-9-11,69.8,62.2,50.7,66.6,60.1,50.2,99,93,85,30.06,29.77,9,2,9,0.00
2014-9-12,72.5,58.2,42.3,55.3,48.5,41.8,99,73,46,30.29,29.91,11,3,14,0.00
2014-9-13,59.0,50.8,41.5,51.2,46.7,41.3,99,87,65,30.34,30.14,9,2,9,0.00
2014-9-14,67.5,52.5,38.3,51.0,44.9,38.0,99,78,47,30.25,30.12,11,3,11,0.00
2014-9-15,71.1,51.5,37.2,49.8,43.0,36.3,99,78,34,30.26,30.11,8,2,8,0.00
2014-9-16,66.7,52.6,42.3,55.6,49.8,42.0,99,91,66,30.12,29.96,7,1,7,0.00
2014-9-17,73.6,55.4,41.4,61.0,47.6,41.1,99,80,36,30.04,29.96,11,2,11,0.00
2014-9-18,72.9,52.3,36.3,54.8,44.2,34.9,99,78,43,30.19,29.93,15,3,15,0.00
2014-9-19,65.5,44.0,29.3,46.3,31.6,21.4,99,71,21,30.42,30.19,9,2,9,0.00
2014-9-20,64.9,49.4,28.9,57.4,45.4,28.7,99,87,65,30.41,30.08,9,2,9,0.00
2014-9-21,74.5,64.1,52.3,69.5,61.7,51.0,98,92,82,30.09,29.58,6,1,6,0.00
2014-9-22,71.4,61.1,44.6,64.2,51.2,36.8,97,71,43,30.08,29.52,21,5,23,0.00
2014-9-23,70.3,54.7,37.8,51.0,43.7,35.7,98,69,44,30.44,30.07,14,3,14,0.00
2014-9-24,75.0,53.2,37.8,56.3,46.4,37.5,99,81,45,30.66,30.44,11,2,11,0.00
2014-9-25,69.6,52.0,38.1,57.0,47.3,37.9,99,86,56,30.58,30.28,6,1,6,0.00
2014-9-26,81.5,57.1,38.3,61.4,51.1,38.0,99,84,45,30.29,30.17,7,1,7,0.00
2014-9-27,89.6,63.2,43.2,66.5,55.5,42.6,99,80,42,30.22,30.16,7,1,7,0.00
2014-9-28,88.9,64.9,47.7,69.0,57.8,47.4,99,82,43,30.20,30.00,8,1,8,0.00
2014-9-29,75.6,61.8,52.3,67.5,56.8,51.6,99,85,59,30.06,29.98,11,2,12,0.00
2014-9-30,62.6,58.7,56.5,55.3,54.3,53.7,91,85,76,30.10,30.04,6,2,6,0.00
2014-10-1,59.4,57.0,55.0,55.5,54.0,52.5,92,90,85,30.19,30.07,11,2,11,0.00
2014-10-2,70.7,55.4,41.5,54.7,50.0,41.3,99,83,56,30.23,30.15,12,3,12,0.00
2014-10-3,72.0,54.1,37.6,54.0,46.6,37.3,99,79,45,30.20,29.93,12,2,12,0.00
2014-10-4,59.4,55.8,52.2,58.5,54.4,50.6,98,95,90,29.93,29.57,7,2,7,0.00
2014-10-5,66.6,53.5,34.9,58.6,45.1,34.4,99,77,38,29.95,29.54,17,3,17,0.00
2014-10-6,70.2,48.5,29.7,49.4,39.5,29.4,99,77,32,30.18,29.95,10,2,10,0.00
2014-10-7,68.2,57.9,41.5,63.3,55.0,41.3,99,90,77,30.18,29.99,20,2,20,0.00
2014-10-8,74.1,62.5,54.0,61.2,52.7,39.1,96,72,43,30.00,29.69,20,4,20,0.00
2014-10-9,64.0,52.2,40.6,42.4,38.0,32.3,91,61,33,29.96,29.83,20,4,20,0.00
2014-10-10,65.7,45.7,30.9,44.6,36.5,30.4,99,75,36,30.14,29.96,11,2,14,0.00
2014-10-11,61.9,42.3,33.1,48.6,38.0,32.6,99,87,49,30.16,30.07,7,1,7,0.00
2014-10-12,64.8,43.4,28.2,45.9,34.8,27.1,99,77,35,30.31,30.14,11,2,11,0.00
2014-10-13,66.6,47.5,28.6,51.3,41.6,28.3,99,82,45,30.35,30.24,11,2,11,0.00
2014-10-14,79.7,63.2,51.8,64.7,57.4,49.3,97,83,57,30.25,30.16,11,2,11,0.00
2014-10-15,81.0,67.8,59.7,68.5,63.1,57.7,96,86,61,30.16,30.03,8,2,8,0.00
2014-10-16,69.8,66.4,63.1,67.4,64.7,61.9,96,94,89,30.03,29.70,15,3,15,0.00
2014-10-17,74.3,60.6,47.5,62.2,54.8,47.2,99,84,45,29.70,29.59,19,3,19,0.00
2014-10-18,66.6,52.8,43.9,58.6,50.6,43.4,99,93,71,29.67,29.51,10,1,10,0.00
2014-10-19,56.7,46.6,39.9,48.3,35.0,26.0,99,66,43,29.93,29.58,22,5,22,0.00
2014-10-20,59.2,42.9,35.4,38.4,30.5,23.9,98,64,30,30.01,29.92,17,3,17,0.00
2014-10-21,49.1,45.2,39.4,47.0,44.1,38.3,99,96,87,30.08,30.00,15,3,15,0.00
2014-10-22,49.1,46.5,45.3,47.3,45.4,44.2,97,96,93,30.15,29.98,21,8,21,0.00
2014-10-23,50.4,47.4,44.8,49.0,46.3,43.7,97,96,94,29.99,29.74,24,9,24,0.00
2014-10-24,52.2,48.1,42.6,49.1,46.1,41.6,98,93,84,29.75,29.68,13,2,13,0.00
2014-10-25,57.4,50.6,37.6,50.1,42.1,37.3,99,75,60,29.75,29.72,8,2,8,0.00
2014-10-26,55.9,55.9,55.9,42.7,42.7,42.7,61,61,61,29.72,29.72,2,2,5,0.00
2014-10-27,55.9,55.9,55.9,42.7,42.7,42.7,61,61,61,29.72,29.72,2,2,5,0.00
2014-10-28,55.9,55.9,55.9,42.7,42.7,42.7,61,61,61,29.72,29.72,2,2,5,0.00
2014-10-29,55.9,55.9,55.9,42.7,42.7,42.7,61,61,61,29.72,29.72,2,2,5,0.00
2014-10-30,55.9,55.9,55.9,42.7,42.7,42.7,61,61,61,29.72,29.72,2,2,5,0.00
2014-10-31,55.9,55.9,55.9,42.7,42.7,42.7,61,61,61,29.72,29.72,2,2,5,0.00
2014-11-1,55.9,55.9,55.9,42.7,42.7,42.7,61,61,61,29.72,29.72,2,2,5,0.00
2014-11-2,55.9,55.9,55.9,42.7,42.7,42.7,61,61,61,29.72,29.72,2,2,5,0.00
2014-11-3,55.9,55.9,55.9,42.7,42.7,42.7,61,61,61,29.72,29.72,2,2,5,0.00
2014-11-4,55.9,55.9,55.9,42.7,42.7,42.7,61,61,61,29.72,29.72,2,2,5,0.00
2014-11-5,55.9,55.9,55.9,42.7,42.7,42.7,61,61,61,29.72,29.72,2,2,5,0.00
2014-11-6,55.9,55.9,55.9,42.7,42.7,42.7,61,61,61,29.72,29.72,2,2,5,0.00
2014-11-7,55.9,55.9,55.9,42.7,42.7,42.7,61,61,61,29.72,29.72,2,2,5,0.00
2014-11-8,55.9,55.9,55.9,42.7,42.7,42.7,61,61,61,29.72,29.72,2,2,5,0.00
2014-11-9,55.9,55.9,55.9,42.7,42.7,42.7,61,61,61,29.72,29.72,2,2,5,0.00
2014-11-10,55.9,55.9,55.9,42.7,42.7,42.7,61,61,61,29.72,29.72,2,2,5,0.00
2014-11-11,55.9,55.9,55.9,42.7,42.7,42.7,61,61,61,29.72,29.72,2,2,5,0.00
2014-11-12,55.9,51.5,33.8,51.2,41.5,31.7,95,70,61,30.20,29.72,11,2,11,14.20
2014-11-13,47.1,37.7,27.5,34.8,26.2,21.9,94,66,38,30.28,30.17,10,2,10,0.00
2014-11-14,45.7,34.7,27.1,38.3,23.1,10.3,97,66,30,30.28,30.10,14,3,17,0.00
2014-11-15,40.3,27.6,16.7,15.3,10.7,4.2,76,51,27,30.51,30.27,15,3,15,0.00
2014-11-16,40.8,29.4,15.8,24.3,18.0,10.1,86,64,44,30.55,30.30,11,2,11,0.00
2014-11-17,36.3,32.5,29.1,32.3,28.9,20.3,95,87,52,30.30,29.64,11,2,11,0.00
2014-11-18,37.9,30.0,22.1,34.1,13.7,-3.0,96,56,25,30.03,29.63,24,7,24,0.00
2014-11-19,39.2,26.4,18.1,13.7,6.1,-1.4,66,43,23,30.27,30.03,22,5,22,0.00
2014-11-20,44.2,30.2,19.4,22.0,12.5,2.7,73,48,33,30.21,29.95,15,4,15,0.00
2014-11-21,32.2,24.9,16.9,15.5,5.8,-1.3,56,44,32,30.55,30.07,25,6,25,0.00
2014-11-22,40.8,27.2,12.6,25.9,10.1,0.3,74,50,25,30.57,30.18,16,3,16,0.00
2014-11-23,59.9,42.1,30.6,42.6,34.3,25.9,90,75,52,30.35,30.18,16,2,16,0.00
2014-11-24,61.2,50.1,30.9,57.7,48.0,28.6,98,93,72,30.31,29.75,15,3,15,0.14
2014-11-25,61.9,50.5,30.7,52.3,34.0,22.6,86,57,27,30.30,29.84,20,4,20,0.01
2014-11-26,41.0,33.5,30.0,30.7,28.5,25.0,94,82,59,30.44,29.97,8,1,8,0.02
2014-11-27,48.9,31.5,24.6,43.6,26.2,19.6,98,81,60,30.23,29.95,10,1,10,0.35
2014-11-28,39.6,25.4,11.3,24.9,16.0,5.0,83,68,44,30.38,30.21,13,2,13,0.09
2014-11-29,37.0,16.2,3.0,18.8,6.7,-4.0,80,67,41,30.52,30.38,10,1,10,0.18
2014-11-30,46.6,31.9,15.4,37.7,27.9,10.0,93,85,68,30.44,30.19,6,1,6,0.07
2014-12-1,59.4,39.3,31.5,46.4,31.3,13.6,98,75,47,30.66,30.17,13,3,13,0.31
2014-12-2,41.4,27.5,17.6,17.2,12.8,8.3,81,55,32,30.94,30.66,12,3,12,0.00
2014-12-3,37.2,31.2,21.7,35.7,27.5,17.1,94,86,56,30.68,30.05,19,3,19,0.78
2014-12-4,37.9,29.5,12.2,24.0,13.7,1.5,76,53,24,30.76,30.20,20,5,20,0.06
2014-12-5,30.0,18.6,6.1,18.5,7.6,-0.6,82,63,36,30.92,30.70,7,2,7,0.33
2014-12-6,34.9,30.4,23.4,32.0,27.4,18.7,94,88,82,30.70,30.33,8,2,8,0.64
2014-12-7,41.0,24.4,5.7,30.6,9.8,-9.2,96,59,23,30.93,30.47,13,2,13,0.14
2014-12-8,25.2,13.9,1.0,9.8,-3.8,-12.8,70,47,23,31.01,30.76,9,2,10,0.00
2014-12-9,33.8,27.0,20.7,31.6,22.1,9.8,92,82,63,30.76,30.16,20,5,20,0.07
2014-12-10,37.0,36.0,35.4,33.8,33.1,32.4,93,89,87,29.87,29.66,19,5,19,0.74
2014-12-11,38.1,34.6,32.2,37.9,32.6,30.4,99,92,85,29.94,29.66,6,1,6,0.19
2014-12-12,44.1,32.9,26.4,36.2,28.3,20.9,95,84,60,30.07,29.94,7,2,9,0.44
2014-12-13,34.9,30.4,24.8,25.1,22.9,19.8,86,74,63,30.04,29.96,11,3,14,0.56
2014-12-14,47.5,32.9,23.9,30.6,25.6,20.8,91,76,48,30.11,29.98,11,2,11,2.29
2014-12-15,46.8,28.0,19.4,35.9,21.1,16.2,91,77,43,30.37,30.10,7,1,7,3.80
2014-12-16,38.5,32.0,24.3,32.2,28.0,20.7,92,85,73,30.38,30.18,3,0,4,0.60
2014-12-17,44.1,36.6,32.9,40.7,34.7,30.8,98,93,85,30.18,29.89,10,2,10,4.29
2014-12-18,41.7,35.8,30.9,34.4,27.8,20.7,90,73,59,30.04,29.87,20,5,20,0.00
2014-12-19,43.7,29.8,18.9,24.2,19.1,14.3,86,65,42,30.36,30.03,12,3,12,0.00
2014-12-20,37.0,28.5,14.2,22.5,15.3,9.2,85,60,45,30.53,30.36,11,1,11,0.00
2014-12-21,37.0,37.0,37.0,17.7,17.7,17.7,45,45,45,30.50,30.50,1,1,7,0.00